createdAt,value
2019-05-19T00:00:34.623Z,15.51
2019-05-19T00:01:34.620Z,15.57
2019-05-19T00:02:34.611Z,15.54
2019-05-19T00:03:34.587Z,15.52
2019-05-19T00:04:34.588Z,15.64
2019-05-19T00:05:34.589Z,15.56
2019-05-19T00:06:34.552Z,15.59
2019-05-19T00:07:34.579Z,15.57
2019-05-19T00:08:34.522Z,15.59
2019-05-19T00:09:34.537Z,15.57
2019-05-19T00:10:34.512Z,15.51
2019-05-19T00:11:34.515Z,15.49
2019-05-19T00:12:34.514Z,15.41
2019-05-19T00:13:34.487Z,15.46
2019-05-19T00:14:34.478Z,15.38
2019-05-19T00:15:34.450Z,15.42
2019-05-19T00:16:34.434Z,15.43
2019-05-19T00:17:34.448Z,15.38
2019-05-19T00:18:34.430Z,15.46
2019-05-19T00:19:34.399Z,15.41
2019-05-19T00:20:34.396Z,15.41
2019-05-19T00:21:34.390Z,15.42
2019-05-19T00:22:34.389Z,15.38
2019-05-19T00:23:34.371Z,15.38
2019-05-19T00:24:34.374Z,15.28
2019-05-19T00:25:34.355Z,15.33
2019-05-19T00:26:34.336Z,15.30
2019-05-19T00:27:34.333Z,15.31
2019-05-19T00:28:34.325Z,15.36
2019-05-19T00:29:34.294Z,15.39
2019-05-19T00:30:34.284Z,15.35
2019-05-19T00:31:34.283Z,15.43
2019-05-19T00:32:34.291Z,15.36
2019-05-19T00:33:34.248Z,15.39
2019-05-19T00:34:34.261Z,15.49
2019-05-19T00:35:34.240Z,15.45
2019-05-19T00:36:34.221Z,15.46
2019-05-19T00:37:34.567Z,15.60
2019-05-19T00:38:34.204Z,15.57
2019-05-19T00:39:34.191Z,15.60
2019-05-19T00:40:34.173Z,15.61
2019-05-19T00:41:34.159Z,15.59
2019-05-19T00:42:34.164Z,15.51
2019-05-19T00:43:34.146Z,15.42
2019-05-19T00:44:34.150Z,15.48
2019-05-19T00:45:34.126Z,15.51
2019-05-19T00:46:34.111Z,15.61
2019-05-19T00:47:34.109Z,15.59
2019-05-19T00:48:34.087Z,15.56
2019-05-19T00:49:41.391Z,15.52
2019-05-19T00:50:35.062Z,15.51
2019-05-19T00:51:34.051Z,15.38
2019-05-19T00:52:34.071Z,15.41
2019-05-19T00:53:34.034Z,15.36
2019-05-19T00:54:34.017Z,15.31
2019-05-19T00:55:34.024Z,15.33
2019-05-19T00:56:33.997Z,15.20
2019-05-19T00:57:34.004Z,15.31
2019-05-19T00:58:33.979Z,15.41
2019-05-19T00:59:33.973Z,15.41
2019-05-19T01:00:33.958Z,15.38
2019-05-19T01:01:33.946Z,15.38
2019-05-19T01:02:33.940Z,15.36
2019-05-19T01:03:33.925Z,15.41
2019-05-19T01:04:33.907Z,15.42
2019-05-19T01:05:33.893Z,15.41
2019-05-19T01:06:33.887Z,15.38
2019-05-19T01:07:33.894Z,15.24
2019-05-19T01:08:33.868Z,15.24
2019-05-19T01:09:33.854Z,15.19
2019-05-19T01:10:33.850Z,15.23
2019-05-19T01:11:33.834Z,15.21
2019-05-19T01:12:33.826Z,15.19
2019-05-19T01:13:33.805Z,15.06
2019-05-19T01:14:33.808Z,15.11
2019-05-19T01:15:33.788Z,15.11
2019-05-19T01:16:33.792Z,15.13
2019-05-19T01:17:33.768Z,15.06
2019-05-19T01:18:33.776Z,15.15
2019-05-19T01:19:33.751Z,15.08
2019-05-19T01:20:33.769Z,15.08
2019-05-19T01:21:33.728Z,15.09
2019-05-19T01:22:33.722Z,15.09
2019-05-19T01:23:33.714Z,15.13
2019-05-19T01:24:33.684Z,15.01
2019-05-19T01:25:33.673Z,15.11
2019-05-19T01:26:33.656Z,15.06
2019-05-19T01:27:33.657Z,15.08
2019-05-19T01:28:33.663Z,15.08
2019-05-19T01:29:33.642Z,15.06
2019-05-19T01:30:33.624Z,15.06
2019-05-19T01:31:33.633Z,15.03
2019-05-19T01:32:33.591Z,15.12
2019-05-19T01:33:33.601Z,15.08
2019-05-19T01:34:33.570Z,15.12
2019-05-19T01:35:33.568Z,15.08
2019-05-19T01:36:33.558Z,15.13
2019-05-19T01:37:33.581Z,15.09
2019-05-19T01:38:33.592Z,15.05
2019-05-19T01:39:33.531Z,15.06
2019-05-19T01:40:33.515Z,15.02
2019-05-19T01:41:33.515Z,15.03
2019-05-19T01:42:33.498Z,15.05
2019-05-19T01:43:33.492Z,15.01
2019-05-19T01:44:33.454Z,14.94
2019-05-19T01:45:33.980Z,14.86
2019-05-19T01:46:33.431Z,14.81
2019-05-19T01:47:33.435Z,14.90
2019-05-19T01:48:33.439Z,14.81
2019-05-19T01:49:33.411Z,14.81
2019-05-19T01:50:33.403Z,14.74
2019-05-19T01:51:33.380Z,14.83
2019-05-19T01:52:33.373Z,14.75
2019-05-19T01:53:33.384Z,14.75
2019-05-19T01:54:33.362Z,14.71
2019-05-19T01:55:33.343Z,14.74
2019-05-19T01:56:33.319Z,14.67
2019-05-19T01:57:33.334Z,14.65
2019-05-19T01:58:33.336Z,14.65
2019-05-19T01:59:33.309Z,14.61
2019-05-19T02:00:33.289Z,14.62
2019-05-19T02:01:33.303Z,14.71
2019-05-19T02:02:33.286Z,14.64
2019-05-19T02:03:33.286Z,14.68
2019-05-19T02:04:33.246Z,14.61
2019-05-19T02:05:33.234Z,14.60
2019-05-19T02:06:33.208Z,14.62
2019-05-19T02:07:33.244Z,14.67
2019-05-19T02:08:33.209Z,14.60
2019-05-19T02:09:33.182Z,14.62
2019-05-19T02:10:33.168Z,14.68
2019-05-19T02:11:33.181Z,14.68
2019-05-19T02:12:33.165Z,14.64
2019-05-19T02:13:33.164Z,14.65
2019-05-19T02:14:33.148Z,14.71
2019-05-19T02:15:33.124Z,14.62
2019-05-19T02:16:33.120Z,14.69
2019-05-19T02:17:33.096Z,14.60
2019-05-19T02:18:33.104Z,14.62
2019-05-19T02:19:33.090Z,14.64
2019-05-19T02:20:34.007Z,14.71
2019-05-19T02:21:33.062Z,14.62
2019-05-19T02:22:33.056Z,14.57
2019-05-19T02:23:33.060Z,14.65
2019-05-19T02:24:33.026Z,14.56
2019-05-19T02:25:33.020Z,14.52
2019-05-19T02:26:33.035Z,14.53
2019-05-19T02:27:32.987Z,14.56
2019-05-19T02:28:32.992Z,14.56
2019-05-19T02:29:32.965Z,14.52
2019-05-19T02:30:32.973Z,14.56
2019-05-19T02:31:32.962Z,14.50
2019-05-19T02:32:32.941Z,14.43
2019-05-19T02:33:35.638Z,14.50
2019-05-19T02:34:32.928Z,14.42
2019-05-19T02:35:32.904Z,14.53
2019-05-19T02:36:32.890Z,14.44
2019-05-19T02:37:32.882Z,14.43
2019-05-19T02:38:32.881Z,14.50
2019-05-19T02:39:32.866Z,14.49
2019-05-19T02:40:32.864Z,14.46
2019-05-19T02:41:32.830Z,14.53
2019-05-19T02:42:32.812Z,14.49
2019-05-19T02:43:32.836Z,14.47
2019-05-19T02:44:32.806Z,14.39
2019-05-19T02:45:32.798Z,14.44
2019-05-19T02:46:32.797Z,14.54
2019-05-19T02:47:32.784Z,14.44
2019-05-19T02:48:32.757Z,14.38
2019-05-19T02:49:32.738Z,14.44
2019-05-19T02:50:50.536Z,14.43
2019-05-19T02:51:33.818Z,14.35
2019-05-19T02:52:32.718Z,14.38
2019-05-19T02:53:32.758Z,14.42
2019-05-19T02:54:32.723Z,14.29
2019-05-19T02:55:32.671Z,14.31
2019-05-19T02:56:32.669Z,14.27
2019-05-19T02:57:32.666Z,14.27
2019-05-19T02:58:32.653Z,14.29
2019-05-19T02:59:32.643Z,14.21
2019-05-19T03:00:32.621Z,14.24
2019-05-19T03:01:32.608Z,14.10
2019-05-19T03:02:32.599Z,14.17
2019-05-19T03:03:32.594Z,14.17
2019-05-19T03:04:32.610Z,14.14
2019-05-19T03:05:32.571Z,14.10
2019-05-19T03:06:32.575Z,14.16
2019-05-19T03:07:32.632Z,14.20
2019-05-19T03:08:32.537Z,14.10
2019-05-19T03:09:32.535Z,14.14
2019-05-19T03:10:32.514Z,14.17
2019-05-19T03:11:32.512Z,14.14
2019-05-19T03:12:32.487Z,14.14
2019-05-19T03:13:32.476Z,14.06
2019-05-19T03:14:32.484Z,14.09
2019-05-19T03:15:32.460Z,14.12
2019-05-19T03:16:32.453Z,14.16
2019-05-19T03:17:32.453Z,14.14
2019-05-19T03:18:32.426Z,14.16
2019-05-19T03:19:32.425Z,14.17
2019-05-19T03:20:32.400Z,14.25
2019-05-19T03:21:32.384Z,14.25
2019-05-19T03:22:32.383Z,14.21
2019-05-19T03:23:32.389Z,14.24
2019-05-19T03:24:32.400Z,14.24
2019-05-19T03:25:32.348Z,14.28
2019-05-19T03:26:32.348Z,14.27
2019-05-19T03:27:32.341Z,14.28
2019-05-19T03:28:32.309Z,14.39
2019-05-19T03:29:32.327Z,14.27
2019-05-19T03:30:32.302Z,14.42
2019-05-19T03:31:32.275Z,14.38
2019-05-19T03:32:32.269Z,14.38
2019-05-19T03:33:32.279Z,14.38
2019-05-19T03:34:32.261Z,14.50
2019-05-19T03:35:32.256Z,14.47
2019-05-19T03:36:32.219Z,14.52
2019-05-19T03:37:32.220Z,14.50
2019-05-19T03:38:32.206Z,14.47
2019-05-19T03:39:32.202Z,14.50
2019-05-19T03:40:32.202Z,14.52
2019-05-19T03:41:32.175Z,14.53
2019-05-19T03:42:32.158Z,14.53
2019-05-19T03:43:32.159Z,14.57
2019-05-19T03:44:32.164Z,14.65
2019-05-19T03:45:32.113Z,14.68
2019-05-19T03:46:32.104Z,14.64
2019-05-19T03:47:32.123Z,14.62
2019-05-19T03:48:32.099Z,14.72
2019-05-19T03:49:32.098Z,14.75
2019-05-19T03:50:32.075Z,14.78
2019-05-19T03:51:32.190Z,14.83
2019-05-19T03:52:32.048Z,14.90
2019-05-19T03:53:32.038Z,14.93
2019-05-19T03:54:32.045Z,14.91
2019-05-19T03:55:32.039Z,15.01
2019-05-19T03:56:32.006Z,14.98
2019-05-19T03:57:32.022Z,15.01
2019-05-19T03:58:31.994Z,15.01
2019-05-19T03:59:31.989Z,14.99
2019-05-19T04:00:31.967Z,15.08
2019-05-19T04:01:31.952Z,15.11
2019-05-19T04:02:31.947Z,15.19
2019-05-19T04:03:31.928Z,15.20
2019-05-19T04:04:31.929Z,15.27
2019-05-19T04:05:31.908Z,15.26
2019-05-19T04:06:31.899Z,15.28
2019-05-19T04:07:31.892Z,15.28
2019-05-19T04:08:31.895Z,15.30
2019-05-19T04:09:31.888Z,15.33
2019-05-19T04:10:31.851Z,15.41
2019-05-19T04:11:31.826Z,15.46
2019-05-19T04:12:31.831Z,15.54
2019-05-19T04:13:31.821Z,15.57
2019-05-19T04:14:31.822Z,15.59
2019-05-19T04:15:31.793Z,15.63
2019-05-19T04:16:31.793Z,15.63
2019-05-19T04:17:31.765Z,15.74
2019-05-19T04:18:31.756Z,15.76
2019-05-19T04:19:31.764Z,15.79
2019-05-19T04:20:31.762Z,15.92
2019-05-19T04:21:47.650Z,16.04
2019-05-19T04:22:32.723Z,16.14
2019-05-19T04:23:31.701Z,16.33
2019-05-19T04:24:31.742Z,16.41
2019-05-19T04:25:31.732Z,16.38
2019-05-19T04:26:31.662Z,16.38
2019-05-19T04:27:31.662Z,16.56
2019-05-19T04:28:31.647Z,16.71
2019-05-19T04:29:31.643Z,16.89
2019-05-19T04:30:31.643Z,16.88
2019-05-19T04:31:31.622Z,16.96
2019-05-19T04:32:31.605Z,17.13
2019-05-19T04:33:31.595Z,17.29
2019-05-19T04:34:31.577Z,17.36
2019-05-19T04:35:31.567Z,17.38
2019-05-19T04:36:31.551Z,17.57
2019-05-19T04:37:31.548Z,17.78
2019-05-19T04:38:31.538Z,17.87
2019-05-19T04:39:31.526Z,17.88
2019-05-19T04:40:31.532Z,17.91
2019-05-19T04:41:31.513Z,17.91
2019-05-19T04:42:31.500Z,17.92
2019-05-19T04:43:31.478Z,17.89
2019-05-19T04:44:31.468Z,17.88
2019-05-19T04:45:31.478Z,17.92
2019-05-19T04:46:31.448Z,18.07
2019-05-19T04:47:31.439Z,18.21
2019-05-19T04:48:31.438Z,18.36
2019-05-19T04:49:31.411Z,18.49
2019-05-19T04:50:31.497Z,18.67
2019-05-19T04:51:31.396Z,18.92
2019-05-19T04:52:31.393Z,19.05
2019-05-19T04:53:31.368Z,19.20
2019-05-19T04:54:31.381Z,19.21
2019-05-19T04:55:31.351Z,19.01
2019-05-19T04:56:31.341Z,19.17
2019-05-19T04:57:31.326Z,19.28
2019-05-19T04:58:31.322Z,18.87
2019-05-19T04:59:31.310Z,18.77
2019-05-19T05:00:31.311Z,18.91
2019-05-19T05:01:31.293Z,18.99
2019-05-19T05:02:31.282Z,19.21
2019-05-19T05:03:31.258Z,19.35
2019-05-19T05:04:31.254Z,19.60
2019-05-19T05:05:31.260Z,19.80
2019-05-19T05:06:31.239Z,19.93
2019-05-19T05:07:31.227Z,20.08
2019-05-19T05:08:31.209Z,20.42
2019-05-19T05:09:31.197Z,20.66
2019-05-19T05:10:31.203Z,20.76
2019-05-19T05:11:31.180Z,20.80
2019-05-19T05:12:31.166Z,20.80
2019-05-19T05:13:31.157Z,21.06
2019-05-19T05:14:31.184Z,21.16
2019-05-19T05:15:31.141Z,21.38
2019-05-19T05:16:31.174Z,21.57
2019-05-19T05:17:31.101Z,21.69
2019-05-19T05:18:31.104Z,21.79
2019-05-19T05:19:31.093Z,21.69
2019-05-19T05:20:31.100Z,21.53
2019-05-19T05:21:31.064Z,21.44
2019-05-19T05:22:31.054Z,21.42
2019-05-19T05:23:31.049Z,21.17
2019-05-19T05:24:31.039Z,21.08
2019-05-19T05:25:31.047Z,20.68
2019-05-19T05:26:31.015Z,20.23
2019-05-19T05:27:30.996Z,20.03
2019-05-19T05:28:30.994Z,19.80
2019-05-19T05:29:30.968Z,19.66
2019-05-19T05:30:30.972Z,19.66
2019-05-19T05:31:30.959Z,19.78
2019-05-19T05:32:30.950Z,19.79
2019-05-19T05:33:30.931Z,20.09
2019-05-19T05:34:30.932Z,20.39
2019-05-19T05:35:30.905Z,20.50
2019-05-19T05:36:30.887Z,20.31
2019-05-19T05:37:30.890Z,20.10
2019-05-19T05:38:30.891Z,19.66
2019-05-19T05:39:30.861Z,19.60
2019-05-19T05:40:30.876Z,19.69
2019-05-19T05:41:30.843Z,19.54
2019-05-19T05:42:31.995Z,19.29
2019-05-19T05:43:30.828Z,19.25
2019-05-19T05:44:30.829Z,19.17
2019-05-19T05:45:30.835Z,19.17
2019-05-19T05:46:30.796Z,19.23
2019-05-19T05:47:30.784Z,19.54
2019-05-19T05:48:30.762Z,19.88
2019-05-19T05:49:30.758Z,20.21
2019-05-19T05:50:30.753Z,20.74
2019-05-19T05:51:30.738Z,21.08
2019-05-19T05:52:38.567Z,21.57
2019-05-19T05:53:31.706Z,21.81
2019-05-19T05:54:30.697Z,21.97
2019-05-19T05:55:30.706Z,21.76
2019-05-19T05:56:30.678Z,21.59
2019-05-19T05:57:30.674Z,21.57
2019-05-19T05:58:30.672Z,21.91
2019-05-19T05:59:30.642Z,22.47
2019-05-19T06:00:30.662Z,23.04
2019-05-19T06:01:30.631Z,23.52
2019-05-19T06:02:30.617Z,24.04
2019-05-19T06:03:30.595Z,24.38
2019-05-19T06:04:30.586Z,24.80
2019-05-19T06:05:30.630Z,24.82
2019-05-19T06:06:30.573Z,24.88
2019-05-19T06:07:30.545Z,24.91
2019-05-19T06:08:30.582Z,24.97
2019-05-19T06:09:30.545Z,25.35
2019-05-19T06:10:30.526Z,25.74
2019-05-19T06:11:30.525Z,26.22
2019-05-19T06:12:30.497Z,26.40
2019-05-19T06:13:30.490Z,26.81
2019-05-19T06:14:30.474Z,27.04
2019-05-19T06:15:30.470Z,27.36
2019-05-19T06:16:30.478Z,27.31
2019-05-19T06:17:30.464Z,27.46
2019-05-19T06:18:30.440Z,27.67
2019-05-19T06:19:30.430Z,27.82
2019-05-19T06:20:30.417Z,28.26
2019-05-19T06:21:30.411Z,27.99
2019-05-19T06:22:30.381Z,27.59
2019-05-19T06:23:30.405Z,27.36
2019-05-19T06:24:30.378Z,27.10
2019-05-19T06:25:30.481Z,27.32
2019-05-19T06:26:30.358Z,27.69
2019-05-19T06:27:30.347Z,27.96
2019-05-19T06:28:30.324Z,28.16
2019-05-19T06:29:30.323Z,28.25
2019-05-19T06:30:30.324Z,28.21
2019-05-19T06:31:30.309Z,27.86
2019-05-19T06:32:30.279Z,27.77
2019-05-19T06:33:30.266Z,28.06
2019-05-19T06:34:30.312Z,28.25
2019-05-19T06:35:30.261Z,28.47
2019-05-19T06:36:30.261Z,28.26
2019-05-19T06:37:30.228Z,28.17
2019-05-19T06:38:30.225Z,27.47
2019-05-19T06:39:30.204Z,27.17
2019-05-19T06:40:30.198Z,27.05
2019-05-19T06:41:30.209Z,27.13
2019-05-19T06:42:30.181Z,27.01
2019-05-19T06:43:30.168Z,27.21
2019-05-19T06:44:30.153Z,27.74
2019-05-19T06:45:30.345Z,28.35
2019-05-19T06:46:30.146Z,28.75
2019-05-19T06:47:30.189Z,28.81
2019-05-19T06:48:30.137Z,28.73
2019-05-19T06:49:30.106Z,29.06
2019-05-19T06:50:30.119Z,29.43
2019-05-19T06:51:30.102Z,29.74
2019-05-19T06:52:30.068Z,30.09
2019-05-19T06:53:30.067Z,30.30
2019-05-19T06:54:30.068Z,30.59
2019-05-19T06:55:30.073Z,30.84
2019-05-19T06:56:30.061Z,31.11
2019-05-19T06:57:30.025Z,31.11
2019-05-19T06:58:30.004Z,30.69
2019-05-19T06:59:30.010Z,30.16
2019-05-19T07:00:29.993Z,29.75
2019-05-19T07:01:30.006Z,29.40
2019-05-19T07:02:29.975Z,29.41
2019-05-19T07:03:29.982Z,29.01
2019-05-19T07:04:29.939Z,29.31
2019-05-19T07:05:29.939Z,29.28
2019-05-19T07:06:29.934Z,29.26
2019-05-19T07:07:29.922Z,29.06
2019-05-19T07:08:29.916Z,29.07
2019-05-19T07:09:29.970Z,29.50
2019-05-19T07:10:29.891Z,29.94
2019-05-19T07:11:29.889Z,30.50
2019-05-19T07:12:29.863Z,30.34
2019-05-19T07:13:29.863Z,29.99
2019-05-19T07:14:29.861Z,29.90
2019-05-19T07:15:29.824Z,29.10
2019-05-19T07:16:29.843Z,28.72
2019-05-19T07:17:29.829Z,28.11
2019-05-19T07:18:29.809Z,28.32
2019-05-19T07:19:29.802Z,28.72
2019-05-19T07:20:29.801Z,28.93
2019-05-19T07:21:29.801Z,28.84
2019-05-19T07:22:29.781Z,28.90
2019-05-19T07:23:29.753Z,29.37
2019-05-19T07:24:29.740Z,29.43
2019-05-19T07:25:29.728Z,29.77
2019-05-19T07:26:29.737Z,29.66
2019-05-19T07:27:29.717Z,29.75
2019-05-19T07:28:29.707Z,30.07
2019-05-19T07:29:29.678Z,30.49
2019-05-19T07:30:29.679Z,30.59
2019-05-19T07:31:29.702Z,31.35
2019-05-19T07:32:29.694Z,31.42
2019-05-19T07:33:29.655Z,31.48
2019-05-19T07:34:29.653Z,31.99
2019-05-19T07:35:29.618Z,32.64
2019-05-19T07:36:29.678Z,32.92
2019-05-19T07:37:29.611Z,32.71
2019-05-19T07:38:29.601Z,32.80
2019-05-19T07:39:29.588Z,33.08
2019-05-19T07:40:29.588Z,32.27
2019-05-19T07:41:29.592Z,31.79
2019-05-19T07:42:29.571Z,31.15
2019-05-19T07:43:29.547Z,31.17
2019-05-19T07:44:29.544Z,31.45
2019-05-19T07:45:29.529Z,31.85
2019-05-19T07:46:29.536Z,32.21
2019-05-19T07:47:29.502Z,32.30
2019-05-19T07:48:29.506Z,32.35
2019-05-19T07:49:29.494Z,32.95
2019-05-19T07:50:29.481Z,33.29
2019-05-19T07:51:29.531Z,33.97
2019-05-19T07:52:29.466Z,33.79
2019-05-19T07:53:42.171Z,33.70
2019-05-19T07:54:30.447Z,33.79
2019-05-19T07:55:29.421Z,34.11
2019-05-19T07:56:29.429Z,34.51
2019-05-19T07:57:29.404Z,34.17
2019-05-19T07:58:29.395Z,33.30
2019-05-19T07:59:29.387Z,33.82
2019-05-19T08:00:29.492Z,34.29
2019-05-19T08:01:29.399Z,34.66
2019-05-19T08:02:29.366Z,34.72
2019-05-19T08:03:29.384Z,34.44
2019-05-19T08:04:29.340Z,34.39
2019-05-19T08:05:29.335Z,34.42
2019-05-19T08:06:29.353Z,33.55
2019-05-19T08:07:29.722Z,33.30
2019-05-19T08:08:29.308Z,33.63
2019-05-19T08:09:29.282Z,33.74
2019-05-19T08:10:29.374Z,34.27
2019-05-19T08:11:29.285Z,34.96
2019-05-19T08:12:29.452Z,35.67
2019-05-19T08:13:29.379Z,36.11
2019-05-19T08:14:29.309Z,36.29
2019-05-19T08:15:29.231Z,36.14
2019-05-19T08:16:29.234Z,35.72
2019-05-19T08:17:29.239Z,35.62
2019-05-19T08:18:29.210Z,35.25
2019-05-19T08:19:29.202Z,34.99
2019-05-19T08:20:29.195Z,34.63
2019-05-19T08:21:29.176Z,33.97
2019-05-19T08:22:29.170Z,34.00
2019-05-19T08:23:29.214Z,34.42
2019-05-19T08:24:29.144Z,34.74
2019-05-19T08:25:29.153Z,35.15
2019-05-19T08:26:29.135Z,35.67
2019-05-19T08:27:29.132Z,35.92
2019-05-19T08:28:29.107Z,36.12
2019-05-19T08:29:29.101Z,36.01
2019-05-19T08:30:29.129Z,35.82
2019-05-19T08:31:29.126Z,35.44
2019-05-19T08:32:29.089Z,35.36
2019-05-19T08:33:29.077Z,35.14
2019-05-19T08:34:29.068Z,35.18
2019-05-19T08:35:29.052Z,34.48
2019-05-19T08:36:29.041Z,33.92
2019-05-19T08:37:29.046Z,33.95
2019-05-19T08:38:29.019Z,34.09
2019-05-19T08:39:29.010Z,34.41
2019-05-19T08:40:29.005Z,34.07
2019-05-19T08:41:28.981Z,33.92
2019-05-19T08:42:28.997Z,33.97
2019-05-19T08:43:28.966Z,33.68
2019-05-19T08:44:28.995Z,33.92
2019-05-19T08:45:28.955Z,34.44
2019-05-19T08:46:28.955Z,35.01
2019-05-19T08:47:28.958Z,34.24
2019-05-19T08:48:28.929Z,34.38
2019-05-19T08:49:28.924Z,34.46
2019-05-19T08:50:28.914Z,34.70
2019-05-19T08:51:28.895Z,34.27
2019-05-19T08:52:28.894Z,33.73
2019-05-19T08:53:28.869Z,33.27
2019-05-19T08:54:28.866Z,33.15
2019-05-19T08:55:28.871Z,32.59
2019-05-19T08:56:28.850Z,32.92
2019-05-19T08:57:28.852Z,32.86
2019-05-19T08:58:28.831Z,32.74
2019-05-19T08:59:28.807Z,32.67
2019-05-19T09:00:28.850Z,31.67
2019-05-19T09:01:28.794Z,31.65
2019-05-19T09:02:28.796Z,31.76
2019-05-19T09:03:28.822Z,32.24
2019-05-19T09:04:28.778Z,32.47
2019-05-19T09:05:28.755Z,32.49
2019-05-19T09:06:28.737Z,32.39
2019-05-19T09:07:28.759Z,31.84
2019-05-19T09:08:28.729Z,31.95
2019-05-19T09:09:28.721Z,31.96
2019-05-19T09:10:28.716Z,32.37
2019-05-19T09:11:28.761Z,31.79
2019-05-19T09:12:28.691Z,31.48
2019-05-19T09:13:28.677Z,32.10
2019-05-19T09:14:28.666Z,31.96
2019-05-19T09:15:28.665Z,31.73
2019-05-19T09:16:28.658Z,31.64
2019-05-19T09:17:28.658Z,31.08
2019-05-19T09:18:28.636Z,30.75
2019-05-19T09:19:28.618Z,31.15
2019-05-19T09:20:28.605Z,30.74
2019-05-19T09:21:28.642Z,30.33
2019-05-19T09:22:28.613Z,30.65
2019-05-19T09:23:28.583Z,31.06
2019-05-19T09:24:30.693Z,31.15
2019-05-19T09:25:28.555Z,31.17
2019-05-19T09:26:28.562Z,30.49
2019-05-19T09:27:28.579Z,30.64
2019-05-19T09:28:28.585Z,30.62
2019-05-19T09:29:28.575Z,30.65
2019-05-19T09:30:28.527Z,30.78
2019-05-19T09:31:28.499Z,30.78
2019-05-19T09:32:28.510Z,30.72
2019-05-19T09:33:28.481Z,31.12
2019-05-19T09:34:28.495Z,31.01
2019-05-19T09:35:28.488Z,31.88
2019-05-19T09:36:28.470Z,32.37
2019-05-19T09:37:28.478Z,32.98
2019-05-19T09:38:28.436Z,33.63
2019-05-19T09:39:28.444Z,34.20
2019-05-19T09:40:28.433Z,34.98
2019-05-19T09:41:28.415Z,35.17
2019-05-19T09:42:28.438Z,34.80
2019-05-19T09:43:28.399Z,33.58
2019-05-19T09:44:28.373Z,33.03
2019-05-19T09:45:28.420Z,32.81
2019-05-19T09:46:28.357Z,32.84
2019-05-19T09:47:28.369Z,33.17
2019-05-19T09:48:28.347Z,33.39
2019-05-19T09:49:28.348Z,33.26
2019-05-19T09:50:28.349Z,33.68
2019-05-19T09:51:28.310Z,33.89
2019-05-19T09:52:28.315Z,33.41
2019-05-19T09:53:28.296Z,32.85
2019-05-19T09:54:28.291Z,32.91
2019-05-19T09:55:28.263Z,32.99
2019-05-19T09:56:28.264Z,32.86
2019-05-19T09:57:28.269Z,33.19
2019-05-19T09:58:28.247Z,33.39
2019-05-19T09:59:28.243Z,33.49
2019-05-19T10:00:28.245Z,33.37
2019-05-19T10:01:28.221Z,33.07
2019-05-19T10:02:28.210Z,33.22
2019-05-19T10:03:28.216Z,33.29
2019-05-19T10:04:28.186Z,33.63
2019-05-19T10:05:28.171Z,33.80
2019-05-19T10:06:28.178Z,33.89
2019-05-19T10:07:28.195Z,33.98
2019-05-19T10:08:28.190Z,34.27
2019-05-19T10:09:28.138Z,34.70
2019-05-19T10:10:28.126Z,35.08
2019-05-19T10:11:28.152Z,34.99
2019-05-19T10:12:28.128Z,35.25
2019-05-19T10:13:28.125Z,35.63
2019-05-19T10:14:28.097Z,36.08
2019-05-19T10:15:28.100Z,35.60
2019-05-19T10:16:28.079Z,35.07
2019-05-19T10:17:28.066Z,35.10
2019-05-19T10:18:28.069Z,34.76
2019-05-19T10:19:28.057Z,34.74
2019-05-19T10:20:28.048Z,34.70
2019-05-19T10:21:28.038Z,35.02
2019-05-19T10:22:28.030Z,34.72
2019-05-19T10:23:28.015Z,34.73
2019-05-19T10:24:27.992Z,34.57
2019-05-19T10:25:27.995Z,34.09
2019-05-19T10:26:27.983Z,34.26
2019-05-19T10:27:27.968Z,34.36
2019-05-19T10:28:27.980Z,34.42
2019-05-19T10:29:27.995Z,34.72
2019-05-19T10:30:27.940Z,34.58
2019-05-19T10:31:27.948Z,35.02
2019-05-19T10:32:27.946Z,35.33
2019-05-19T10:33:27.928Z,35.67
2019-05-19T10:34:27.924Z,36.45
2019-05-19T10:35:27.898Z,36.54
2019-05-19T10:36:27.883Z,36.41
2019-05-19T10:37:27.888Z,36.21
2019-05-19T10:38:27.888Z,35.58
2019-05-19T10:39:27.863Z,33.82
2019-05-19T10:40:27.868Z,34.00
2019-05-19T10:41:27.850Z,34.81
2019-05-19T10:42:27.867Z,35.30
2019-05-19T10:43:27.845Z,35.55
2019-05-19T10:44:27.822Z,35.62
2019-05-19T10:45:27.816Z,35.44
2019-05-19T10:46:27.809Z,35.58
2019-05-19T10:47:27.795Z,35.64
2019-05-19T10:48:27.823Z,35.40
2019-05-19T10:49:27.789Z,35.60
2019-05-19T10:50:27.796Z,35.70
2019-05-19T10:51:27.749Z,36.52
2019-05-19T10:52:27.753Z,37.04
2019-05-19T10:53:27.757Z,37.29
2019-05-19T10:54:27.735Z,36.52
2019-05-19T10:55:36.288Z,35.77
2019-05-19T10:56:28.703Z,35.08
2019-05-19T10:57:27.713Z,34.58
2019-05-19T10:58:27.717Z,33.80
2019-05-19T10:59:27.696Z,33.52
2019-05-19T11:00:27.725Z,32.44
2019-05-19T11:01:27.673Z,31.50
2019-05-19T11:02:27.650Z,31.06
2019-05-19T11:03:27.659Z,30.52
2019-05-19T11:04:27.631Z,30.19
2019-05-19T11:05:27.636Z,29.96
2019-05-19T11:06:27.626Z,29.78
2019-05-19T11:07:27.618Z,29.57
2019-05-19T11:08:27.617Z,29.62
2019-05-19T11:09:27.594Z,30.54
2019-05-19T11:10:27.590Z,31.77
2019-05-19T11:11:27.581Z,32.70
2019-05-19T11:12:27.569Z,33.23
2019-05-19T11:13:27.554Z,34.02
2019-05-19T11:14:27.543Z,33.06
2019-05-19T11:15:27.530Z,31.65
2019-05-19T11:16:27.517Z,30.80
2019-05-19T11:17:27.518Z,30.12
2019-05-19T11:18:27.517Z,29.90
2019-05-19T11:19:27.494Z,30.72
2019-05-19T11:20:27.481Z,31.92
2019-05-19T11:21:27.469Z,31.80
2019-05-19T11:22:27.458Z,31.92
2019-05-19T11:23:27.523Z,31.98
2019-05-19T11:24:27.615Z,32.55
2019-05-19T11:25:33.819Z,33.17
2019-05-19T11:26:28.431Z,32.25
2019-05-19T11:27:27.434Z,31.39
2019-05-19T11:28:27.417Z,30.50
2019-05-19T11:29:27.396Z,30.05
2019-05-19T11:30:27.386Z,30.14
2019-05-19T11:31:27.384Z,29.70
2019-05-19T11:32:27.374Z,28.95
2019-05-19T11:33:27.373Z,28.48
2019-05-19T11:34:27.351Z,27.98
2019-05-19T11:35:27.331Z,27.67
2019-05-19T11:36:27.335Z,27.54
2019-05-19T11:37:27.320Z,27.43
2019-05-19T11:38:27.358Z,27.32
2019-05-19T11:39:27.289Z,27.19
2019-05-19T11:40:27.278Z,27.26
2019-05-19T11:41:27.274Z,28.60
2019-05-19T11:42:27.271Z,29.74
2019-05-19T11:43:27.250Z,30.30
2019-05-19T11:44:27.292Z,30.76
2019-05-19T11:45:27.232Z,31.20
2019-05-19T11:46:27.222Z,32.30
2019-05-19T11:47:27.210Z,32.92
2019-05-19T11:48:27.204Z,33.26
2019-05-19T11:49:27.215Z,32.69
2019-05-19T11:50:27.185Z,31.26
2019-05-19T11:51:27.177Z,30.43
2019-05-19T11:52:27.166Z,29.90
2019-05-19T11:53:27.144Z,29.08
2019-05-19T11:54:27.139Z,29.87
2019-05-19T11:55:27.135Z,30.74
2019-05-19T11:56:27.121Z,31.61
2019-05-19T11:57:27.104Z,32.37
2019-05-19T11:58:27.100Z,33.01
2019-05-19T11:59:27.101Z,33.73
2019-05-19T12:00:27.080Z,32.25
2019-05-19T12:01:27.078Z,31.80
2019-05-19T12:02:27.077Z,30.93
2019-05-19T12:03:27.048Z,29.93
2019-05-19T12:04:27.125Z,30.89
2019-05-19T12:05:27.059Z,32.00
2019-05-19T12:06:38.710Z,31.87
2019-05-19T12:07:27.998Z,30.61
2019-05-19T12:08:27.003Z,29.47
2019-05-19T12:09:27.018Z,28.97
2019-05-19T12:10:27.001Z,30.02
2019-05-19T12:11:26.960Z,30.98
2019-05-19T12:12:26.961Z,31.73
2019-05-19T12:13:26.964Z,31.35
2019-05-19T12:14:26.957Z,31.96
2019-05-19T12:15:26.936Z,32.51
2019-05-19T12:16:26.952Z,33.08
2019-05-19T12:17:26.910Z,33.27
2019-05-19T12:18:26.898Z,33.94
2019-05-19T12:19:26.903Z,34.20
2019-05-19T12:20:26.879Z,34.63
2019-05-19T12:21:26.884Z,34.23
2019-05-19T12:22:26.869Z,34.27
2019-05-19T12:23:26.875Z,34.26
2019-05-19T12:24:26.881Z,34.57
2019-05-19T12:25:26.838Z,34.61
2019-05-19T12:26:26.819Z,34.98
2019-05-19T12:27:26.829Z,34.77
2019-05-19T12:28:26.819Z,34.81
2019-05-19T12:29:26.813Z,35.10
2019-05-19T12:30:26.779Z,35.11
2019-05-19T12:31:26.793Z,34.94
2019-05-19T12:32:26.763Z,34.58
2019-05-19T12:33:26.766Z,33.49
2019-05-19T12:34:26.771Z,32.55
2019-05-19T12:35:26.745Z,32.29
2019-05-19T12:36:26.754Z,32.05
2019-05-19T12:37:26.717Z,31.75
2019-05-19T12:38:26.725Z,31.31
2019-05-19T12:39:26.725Z,31.06
2019-05-19T12:40:26.684Z,30.72
2019-05-19T12:41:26.684Z,30.31
2019-05-19T12:42:26.677Z,29.99
2019-05-19T12:43:26.654Z,29.52
2019-05-19T12:44:26.654Z,28.96
2019-05-19T12:45:26.644Z,28.56
2019-05-19T12:46:26.627Z,28.07
2019-05-19T12:47:26.624Z,27.73
2019-05-19T12:48:26.603Z,27.46
2019-05-19T12:49:26.603Z,27.51
2019-05-19T12:50:26.585Z,27.66
2019-05-19T12:51:27.043Z,27.58
2019-05-19T12:52:26.560Z,27.64